EWL1914 LIPZ-LKPR
Flight info
| Callsign | EWL1914 |
|---|---|
| Flight time | N/A |
| Altitude | 30000 |
| Route | ROKIB DCT MALUG/N0483F310 DCT ERANI/N0484F300 DCT SIMBA Y700 NENUM/N0482F310 Z39 DOLUP DCT APRAQ |
| Aircraft | L101/H-SDFGHIRWXY/S |
Departure
| Time | 2026-04-29 17:13 |
|---|---|
| Airport | Venice Marco Polo Airport (LIPZ) |
Arrival
| Time | N/A |
|---|---|
| Airport | Václav Havel Airport Prague (LKPR) |
| Time | Latitude | Longitude | Altitude | Speed | Heading |
|---|---|---|---|---|---|
| 2026-04-29 16:15 | 45.50426 | 12.34216 | 20 ft | 0 kts | 268° |
| 2026-04-29 16:55 | 45.50426 | 12.34231 | 21 ft | 4 kts | 271° |
| 2026-04-29 16:56 | 45.50425 | 12.34269 | 21 ft | 4 kts | 268° |
| 2026-04-29 16:56 | 45.50427 | 12.34307 | 21 ft | 4 kts | 260° |
| 2026-04-29 16:56 | 45.50437 | 12.34337 | 21 ft | 4 kts | 207° |
| 2026-04-29 16:56 | 45.50461 | 12.34344 | 24 ft | 3 kts | 178° |
| 2026-04-29 16:57 | 45.50468 | 12.34343 | 21 ft | 0 kts | 178° |
| 2026-04-29 17:06 | 45.50455 | 12.34344 | 24 ft | 4 kts | 178° |
| 2026-04-29 17:07 | 45.50410 | 12.34347 | 24 ft | 9 kts | 178° |
| 2026-04-29 17:07 | 45.50360 | 12.34350 | 24 ft | 12 kts | 178° |
| 2026-04-29 17:07 | 45.50250 | 12.34356 | 21 ft | 13 kts | 178° |
| 2026-04-29 17:07 | 45.50147 | 12.34347 | 23 ft | 17 kts | 197° |
| 2026-04-29 17:08 | 45.50063 | 12.34263 | 23 ft | 13 kts | 222° |
| 2026-04-29 17:08 | 45.49989 | 12.34165 | 21 ft | 16 kts | 223° |
| 2026-04-29 17:08 | 45.49923 | 12.34079 | 21 ft | 13 kts | 222° |
| 2026-04-29 17:08 | 45.49871 | 12.34010 | 22 ft | 8 kts | 223° |
| 2026-04-29 17:09 | 45.49829 | 12.33957 | 23 ft | 6 kts | 222° |
| 2026-04-29 17:09 | 45.49790 | 12.33906 | 20 ft | 7 kts | 222° |
| 2026-04-29 17:09 | 45.49746 | 12.33849 | 22 ft | 9 kts | 221° |
| 2026-04-29 17:09 | 45.49693 | 12.33781 | 22 ft | 12 kts | 221° |
| 2026-04-29 17:10 | 45.49631 | 12.33703 | 21 ft | 10 kts | 222° |
| 2026-04-29 17:10 | 45.49584 | 12.33645 | 24 ft | 10 kts | 217° |
| 2026-04-29 17:10 | 45.49525 | 12.33601 | 25 ft | 4 kts | 177° |
| 2026-04-29 17:10 | 45.49497 | 12.33629 | 26 ft | 7 kts | 137° |
| 2026-04-29 17:11 | 45.49451 | 12.33694 | 25 ft | 12 kts | 132° |
| 2026-04-29 17:11 | 45.49415 | 12.33762 | 23 ft | 5 kts | 122° |
| 2026-04-29 17:11 | 45.49418 | 12.33783 | 23 ft | 1 kts | 46° |
| 2026-04-29 17:11 | 45.49419 | 12.33783 | 20 ft | 0 kts | 41° |
| 2026-04-29 17:13 | 45.49783 | 12.34253 | 19 ft | 116 kts | 42° |
| 2026-04-29 17:13 | 45.50555 | 12.35257 | 314 ft | 170 kts | 43° |
| 2026-04-29 17:13 | 45.51458 | 12.36414 | 1388 ft | 175 kts | 43° |
| 2026-04-29 17:13 | 45.52110 | 12.37840 | 2488 ft | 183 kts | 73° |
| 2026-04-29 17:14 | 45.52149 | 12.39707 | 3150 ft | 192 kts | 90° |
| 2026-04-29 17:14 | 45.52116 | 12.41637 | 3696 ft | 196 kts | 84° |
| 2026-04-29 17:14 | 45.52301 | 12.43548 | 4285 ft | 195 kts | 77° |
| 2026-04-29 17:14 | 45.52530 | 12.45472 | 4992 ft | 199 kts | 79° |
| 2026-04-29 17:15 | 45.52625 | 12.47437 | 5656 ft | 204 kts | 87° |
| 2026-04-29 17:15 | 45.52262 | 12.49427 | 6236 ft | 215 kts | 117° |
| 2026-04-29 17:15 | 45.51134 | 12.50872 | 6831 ft | 227 kts | 152° |
| 2026-04-29 17:15 | 45.49597 | 12.51354 | 7504 ft | 230 kts | 180° |
| 2026-04-29 17:16 | 45.48076 | 12.50767 | 8085 ft | 227 kts | 214° |
| 2026-04-29 17:16 | 45.47030 | 12.49168 | 8780 ft | 220 kts | 241° |
| 2026-04-29 17:16 | 45.46414 | 12.47115 | 9609 ft | 234 kts | 253° |
| 2026-04-29 17:16 | 45.45957 | 12.44726 | 10334 ft | 264 kts | 258° |
| 2026-04-29 17:17 | 45.45609 | 12.42122 | 10847 ft | 271 kts | 262° |
| 2026-04-29 17:17 | 45.45372 | 12.39472 | 11384 ft | 275 kts | 265° |
| 2026-04-29 17:17 | 45.45199 | 12.36684 | 11973 ft | 299 kts | 266° |
| 2026-04-29 17:17 | 45.45046 | 12.33581 | 12443 ft | 323 kts | 267° |
| 2026-04-29 17:18 | 45.44905 | 12.30352 | 12925 ft | 329 kts | 268° |
| 2026-04-29 17:18 | 45.44770 | 12.27084 | 13425 ft | 332 kts | 268° |
| 2026-04-29 17:18 | 45.44639 | 12.23791 | 13953 ft | 334 kts | 268° |
| 2026-04-29 17:18 | 45.44511 | 12.20470 | 14431 ft | 337 kts | 268° |
| 2026-04-29 17:19 | 45.44528 | 12.17133 | 14902 ft | 339 kts | 279° |
| 2026-04-29 17:19 | 45.45286 | 12.13983 | 15305 ft | 338 kts | 301° |
| 2026-04-29 17:19 | 45.46787 | 12.11474 | 15798 ft | 340 kts | 315° |
| 2026-04-29 17:19 | 45.48539 | 12.09172 | 16351 ft | 345 kts | 316° |
| 2026-04-29 17:20 | 45.50287 | 12.06801 | 16874 ft | 348 kts | 315° |
| 2026-04-29 17:20 | 45.52072 | 12.04443 | 17395 ft | 350 kts | 317° |
| 2026-04-29 17:20 | 45.53953 | 12.02217 | 17934 ft | 352 kts | 321° |
| 2026-04-29 17:20 | 45.55922 | 12.00123 | 18462 ft | 354 kts | 323° |
| 2026-04-29 17:21 | 45.57943 | 11.98093 | 18939 ft | 356 kts | 323° |
| 2026-04-29 17:21 | 45.59984 | 11.96075 | 19418 ft | 358 kts | 323° |
| 2026-04-29 17:21 | 45.62006 | 11.94078 | 19879 ft | 359 kts | 323° |
| 2026-04-29 17:21 | 45.64070 | 11.92043 | 20383 ft | 361 kts | 323° |
| 2026-04-29 17:22 | 45.66148 | 11.90003 | 20876 ft | 364 kts | 323° |
| 2026-04-29 17:22 | 45.68242 | 11.87955 | 21389 ft | 366 kts | 323° |
| 2026-04-29 17:22 | 45.70361 | 11.85893 | 21900 ft | 375 kts | 324° |
| 2026-04-29 17:22 | 45.72621 | 11.83928 | 22407 ft | 384 kts | 328° |
| 2026-04-29 17:23 | 45.75018 | 11.82187 | 22928 ft | 388 kts | 331° |
| 2026-04-29 17:23 | 45.77464 | 11.80516 | 23486 ft | 392 kts | 331° |
| 2026-04-29 17:23 | 45.79893 | 11.78828 | 23992 ft | 395 kts | 330° |
| 2026-04-29 17:23 | 45.82359 | 11.77075 | 24456 ft | 396 kts | 330° |
| 2026-04-29 17:24 | 45.84834 | 11.75321 | 24949 ft | 399 kts | 330° |
| 2026-04-29 17:24 | 45.87345 | 11.73607 | 25413 ft | 402 kts | 334° |
| 2026-04-29 17:24 | 45.90075 | 11.72578 | 25828 ft | 412 kts | 351° |
| 2026-04-29 17:24 | 45.92960 | 11.72897 | 26265 ft | 425 kts | 9° |
| 2026-04-29 17:25 | 45.95752 | 11.74440 | 26809 ft | 436 kts | 21° |
| 2026-04-29 17:25 | 45.98420 | 11.76614 | 27404 ft | 446 kts | 25° |
| 2026-04-29 17:25 | 46.01008 | 11.79023 | 27945 ft | 453 kts | 27° |
| 2026-04-29 17:25 | 46.03613 | 11.81617 | 28485 ft | 457 kts | 29° |
| 2026-04-29 17:26 | 46.06189 | 11.84328 | 29043 ft | 461 kts | 30° |
| 2026-04-29 17:26 | 46.08751 | 11.87137 | 29603 ft | 464 kts | 31° |
| 2026-04-29 17:26 | 46.11317 | 11.90018 | 29928 ft | 472 kts | 31° |
| 2026-04-29 17:26 | 46.13915 | 11.92971 | 30082 ft | 482 kts | 32° |
| 2026-04-29 17:27 | 46.16591 | 11.96027 | 30082 ft | 496 kts | 32° |
| 2026-04-29 17:27 | 46.19269 | 11.99120 | 30083 ft | 498 kts | 32° |
| 2026-04-29 17:27 | 46.24637 | 12.05400 | 30126 ft | 498 kts | 32° |
| 2026-04-29 17:28 | 46.30020 | 12.11700 | 30127 ft | 498 kts | 32° |
| 2026-04-29 17:28 | 46.34503 | 12.16944 | 30134 ft | 499 kts | 32° |
| 2026-04-29 17:29 | 46.39909 | 12.23290 | 30126 ft | 501 kts | 32° |
| 2026-04-29 17:29 | 46.45314 | 12.29662 | 30139 ft | 501 kts | 32° |
| 2026-04-29 17:30 | 46.50721 | 12.36033 | 30140 ft | 501 kts | 32° |
| 2026-04-29 17:30 | 46.56097 | 12.42402 | 30152 ft | 503 kts | 32° |
| 2026-04-29 17:31 | 46.61525 | 12.48846 | 30159 ft | 505 kts | 32° |
| 2026-04-29 17:31 | 46.66969 | 12.55307 | 30143 ft | 502 kts | 30° |
| 2026-04-29 17:32 | 46.69877 | 12.57976 | 30119 ft | 487 kts | 16° |
| 2026-04-29 17:32 | 46.73029 | 12.59474 | 30166 ft | 471 kts | 5° |
| 2026-04-29 17:32 | 46.79440 | 12.61892 | 30167 ft | 480 kts | 9° |
| 2026-04-29 17:33 | 46.85827 | 12.64752 | 30161 ft | 478 kts | 7° |
| 2026-04-29 17:33 | 46.92243 | 12.67322 | 30159 ft | 480 kts | 9° |
| 2026-04-29 17:34 | 46.98556 | 12.70387 | 30162 ft | 483 kts | 11° |
| 2026-04-29 17:34 | 47.04938 | 12.73232 | 30160 ft | 475 kts | 5° |
| 2026-04-29 17:35 | 47.14632 | 12.75739 | 30158 ft | 470 kts | 0° |
| 2026-04-29 17:36 | 47.21122 | 12.77191 | 30177 ft | 472 kts | 1° |
| 2026-04-29 17:36 | 47.27597 | 12.78688 | 30187 ft | 470 kts | 1° |
| 2026-04-29 17:37 | 47.34056 | 12.80205 | 30191 ft | 471 kts | 3° |
| 2026-04-29 17:37 | 47.40475 | 12.81745 | 30188 ft | 470 kts | 2° |
| 2026-04-29 17:38 | 47.46938 | 12.83269 | 30198 ft | 470 kts | 2° |
| 2026-04-29 17:38 | 47.53404 | 12.84806 | 30225 ft | 471 kts | 4° |
| 2026-04-29 17:39 | 47.59854 | 12.86455 | 30222 ft | 471 kts | 5° |
| 2026-04-29 17:39 | 47.66269 | 12.88043 | 30207 ft | 470 kts | 4° |
| 2026-04-29 17:40 | 47.72720 | 12.89577 | 30222 ft | 469 kts | 5° |
| 2026-04-29 17:40 | 47.79164 | 12.91107 | 30213 ft | 469 kts | 6° |
| 2026-04-29 17:41 | 47.85604 | 12.92661 | 30223 ft | 469 kts | 5° |
| 2026-04-29 17:41 | 47.92043 | 12.94204 | 30245 ft | 469 kts | 5° |
| 2026-04-29 17:42 | 48.05722 | 12.97616 | 30225 ft | 466 kts | 7° |
| 2026-04-29 17:43 | 48.12111 | 12.99226 | 30232 ft | 466 kts | 8° |
| 2026-04-29 17:43 | 48.18437 | 13.01415 | 30233 ft | 467 kts | 12° |
| 2026-04-29 17:44 | 48.23667 | 13.03488 | 30230 ft | 468 kts | 12° |
| 2026-04-29 17:44 | 48.30968 | 13.06445 | 30229 ft | 468 kts | 12° |
| 2026-04-29 17:45 | 48.37240 | 13.08987 | 30241 ft | 465 kts | 14° |
| 2026-04-29 17:45 | 48.42380 | 13.11225 | 30231 ft | 462 kts | 18° |
| 2026-04-29 17:46 | 48.49090 | 13.15729 | 30241 ft | 464 kts | 25° |
| 2026-04-29 17:46 | 48.54671 | 13.20230 | 30254 ft | 464 kts | 26° |
| 2026-04-29 17:47 | 48.60331 | 13.24894 | 30241 ft | 462 kts | 27° |
| 2026-04-29 17:47 | 48.65984 | 13.29587 | 29733 ft | 463 kts | 27° |
| 2026-04-29 17:47 | 48.68870 | 13.31971 | 29284 ft | 459 kts | 27° |
| 2026-04-29 17:48 | 48.71595 | 13.34219 | 28874 ft | 456 kts | 27° |
| 2026-04-29 17:48 | 48.74371 | 13.36507 | 28457 ft | 452 kts | 27° |
| 2026-04-29 17:48 | 48.77122 | 13.38775 | 28062 ft | 448 kts | 27° |
| 2026-04-29 17:48 | 48.79902 | 13.41070 | 27649 ft | 443 kts | 27° |
| 2026-04-29 17:49 | 48.82274 | 13.43032 | 27433 ft | 439 kts | 27° |
| 2026-04-29 17:49 | 48.84949 | 13.45247 | 27326 ft | 437 kts | 27° |
| 2026-04-29 17:49 | 48.87732 | 13.47552 | 27286 ft | 437 kts | 27° |
| 2026-04-29 17:49 | 48.90393 | 13.49756 | 27273 ft | 437 kts | 27° |
| 2026-04-29 17:50 | 48.93074 | 13.51980 | 26904 ft | 440 kts | 27° |
| 2026-04-29 17:50 | 48.95749 | 13.54201 | 26322 ft | 436 kts | 27° |
| 2026-04-29 17:50 | 48.98389 | 13.56397 | 25681 ft | 429 kts | 27° |
| 2026-04-29 17:50 | 49.00957 | 13.58555 | 25068 ft | 412 kts | 27° |
| 2026-04-29 17:51 | 49.03403 | 13.60646 | 24466 ft | 394 kts | 27° |
| 2026-04-29 17:51 | 49.05716 | 13.62619 | 23883 ft | 379 kts | 27° |
| 2026-04-29 17:51 | 49.07996 | 13.64547 | 23215 ft | 373 kts | 26° |
| 2026-04-29 17:51 | 49.10263 | 13.66449 | 22522 ft | 372 kts | 26° |
| 2026-04-29 17:52 | 49.12534 | 13.68346 | 21854 ft | 370 kts | 26° |
| 2026-04-29 17:52 | 49.14057 | 13.69618 | 21410 ft | 369 kts | 26° |
| 2026-04-29 17:52 | 49.17018 | 13.72093 | 20580 ft | 364 kts | 26° |
| 2026-04-29 17:52 | 49.19228 | 13.73941 | 19953 ft | 360 kts | 26° |
| 2026-04-29 17:53 | 49.21416 | 13.75774 | 19352 ft | 357 kts | 26° |
| 2026-04-29 17:53 | 49.23585 | 13.77588 | 18756 ft | 354 kts | 26° |
| 2026-04-29 17:53 | 49.25748 | 13.79377 | 18096 ft | 352 kts | 26° |
| 2026-04-29 17:53 | 49.27868 | 13.81115 | 17532 ft | 347 kts | 26° |
| 2026-04-29 17:54 | 49.29982 | 13.82840 | 17329 ft | 343 kts | 26° |
| 2026-04-29 17:54 | 49.32108 | 13.84568 | 16924 ft | 347 kts | 26° |
| 2026-04-29 17:54 | 49.34234 | 13.86293 | 16412 ft | 345 kts | 26° |
| 2026-04-29 17:54 | 49.36345 | 13.88004 | 15908 ft | 341 kts | 26° |
| 2026-04-29 17:55 | 49.38432 | 13.89689 | 15407 ft | 337 kts | 26° |
| 2026-04-29 17:55 | 49.40497 | 13.91348 | 14911 ft | 333 kts | 26° |
| 2026-04-29 17:55 | 49.42547 | 13.92989 | 14423 ft | 331 kts | 26° |
| 2026-04-29 17:55 | 49.44649 | 13.94665 | 13884 ft | 329 kts | 26° |
| 2026-04-29 17:56 | 49.46607 | 13.96227 | 13564 ft | 325 kts | 26° |
| 2026-04-29 17:56 | 49.48587 | 13.97806 | 13412 ft | 325 kts | 26° |
| 2026-04-29 17:56 | 49.50907 | 13.99991 | 13392 ft | 326 kts | 34° |
| 2026-04-29 17:57 | 49.53871 | 14.03656 | 13119 ft | 330 kts | 38° |
| 2026-04-29 17:57 | 49.55012 | 14.05191 | 12874 ft | 329 kts | 39° |
| 2026-04-29 17:57 | 49.57281 | 14.08333 | 12221 ft | 327 kts | 39° |
| 2026-04-29 17:57 | 49.57823 | 14.09095 | 12013 ft | 326 kts | 39° |
| 2026-04-29 17:58 | 49.60288 | 14.12590 | 11027 ft | 320 kts | 40° |
| 2026-04-29 17:58 | 49.63988 | 14.17909 | 10413 ft | 314 kts | 40° |
| 2026-04-29 17:59 | 49.67597 | 14.23142 | 10355 ft | 270 kts | 40° |
| 2026-04-29 17:59 | 49.71049 | 14.28191 | 10351 ft | 271 kts | 40° |
| 2026-04-29 18:00 | 49.73772 | 14.32179 | 10350 ft | 271 kts | 40° |
| 2026-04-29 18:01 | 49.77737 | 14.37993 | 10346 ft | 270 kts | 40° |